createdAt,value
2023-02-24T00:00:35.027Z,33.29
2023-02-24T00:01:15.188Z,33.33
2023-02-24T00:01:54.240Z,33.31
2023-02-24T00:02:34.301Z,33.21
2023-02-24T00:03:11.811Z,33.31
2023-02-24T00:03:50.453Z,33.14
2023-02-24T00:04:30.478Z,33.33
2023-02-24T00:05:10.717Z,33.39
2023-02-24T00:05:50.863Z,33.24
2023-02-24T00:06:30.570Z,33.25
2023-02-24T00:07:09.990Z,33.33
2023-02-24T00:07:47.903Z,33.28
2023-02-24T00:08:27.448Z,33.30
2023-02-24T00:09:06.577Z,33.56
2023-02-24T00:09:45.788Z,33.23
2023-02-24T00:10:25.131Z,33.48
2023-02-24T00:11:05.085Z,33.22
2023-02-24T00:11:44.784Z,33.32
2023-02-24T00:12:22.795Z,33.44
2023-02-24T00:13:01.865Z,33.20
2023-02-24T00:13:41.440Z,33.31
2023-02-24T00:14:20.399Z,33.29
2023-02-24T00:15:00.534Z,33.20
2023-02-24T00:15:41.236Z,33.21
2023-02-24T00:16:21.066Z,33.28
2023-02-24T00:17:01.729Z,33.26
2023-02-24T00:17:41.893Z,33.18
2023-02-24T00:18:21.232Z,33.48
2023-02-24T00:19:02.502Z,33.16
2023-02-24T00:19:42.289Z,33.24
2023-02-24T00:20:22.305Z,33.17
2023-02-24T00:21:03.411Z,33.32
2023-02-24T00:21:43.641Z,33.23
2023-02-24T00:22:24.527Z,33.07
2023-02-24T00:23:03.969Z,33.22
2023-02-24T00:23:43.474Z,33.24
2023-02-24T00:24:23.388Z,33.44
2023-02-24T00:25:03.577Z,33.37
2023-02-24T00:25:43.818Z,33.23
2023-02-24T00:26:24.818Z,33.12
2023-02-24T00:27:04.891Z,33.38
2023-02-24T00:27:44.987Z,33.23
2023-02-24T00:28:25.352Z,33.19
2023-02-24T00:29:04.960Z,33.30
2023-02-24T00:29:44.593Z,33.16
2023-02-24T00:30:24.993Z,33.26
2023-02-24T00:31:04.844Z,33.31
2023-02-24T00:31:44.491Z,33.34
2023-02-24T00:32:24.667Z,33.17
2023-02-24T00:33:04.283Z,33.12
2023-02-24T00:33:43.701Z,33.24
2023-02-24T00:34:23.298Z,33.27
2023-02-24T00:35:03.077Z,33.14
2023-02-24T00:35:43.292Z,33.26
2023-02-24T00:36:23.163Z,33.22
2023-02-24T00:37:02.427Z,33.35
2023-02-24T00:37:40.525Z,33.21
2023-02-24T00:38:19.358Z,33.22
2023-02-24T00:38:59.127Z,33.20
2023-02-24T00:39:39.353Z,33.34
2023-02-24T00:40:19.390Z,33.34
2023-02-24T00:41:01.164Z,33.29
2023-02-24T00:41:42.503Z,33.13
2023-02-24T00:42:23.467Z,33.26
2023-02-24T00:43:02.761Z,33.22
2023-02-24T00:43:42.070Z,33.27
2023-02-24T00:44:21.691Z,33.09
2023-02-24T00:45:03.414Z,33.24
2023-02-24T00:45:42.109Z,33.18
2023-02-24T00:46:22.271Z,33.25
2023-02-24T00:47:02.403Z,33.23
2023-02-24T00:47:43.528Z,33.18
2023-02-24T00:48:22.341Z,33.15
2023-02-24T00:49:00.856Z,33.23
2023-02-24T00:49:41.006Z,33.16
2023-02-24T00:50:21.979Z,33.30
2023-02-24T00:51:01.978Z,33.16
2023-02-24T00:51:42.416Z,33.16
2023-02-24T00:52:22.627Z,33.24
2023-02-24T00:53:03.061Z,33.07
2023-02-24T00:53:43.090Z,33.26
2023-02-24T00:54:23.116Z,33.15
2023-02-24T00:55:04.219Z,33.31
2023-02-24T00:55:44.202Z,33.18
2023-02-24T00:56:24.094Z,33.22
2023-02-24T00:57:04.793Z,33.22
2023-02-24T00:57:45.014Z,33.12
2023-02-24T00:58:25.473Z,33.13
2023-02-24T00:59:05.300Z,33.09
2023-02-24T00:59:43.784Z,33.17
2023-02-24T01:00:23.613Z,33.04
2023-02-24T01:01:03.169Z,33.20
2023-02-24T01:01:44.143Z,33.12
2023-02-24T01:02:24.152Z,33.06
2023-02-24T01:03:04.458Z,33.30
2023-02-24T01:03:44.372Z,33.08
2023-02-24T01:04:23.136Z,33.25
2023-02-24T01:05:04.368Z,33.03
2023-02-24T01:05:44.104Z,33.08
2023-02-24T01:06:24.209Z,33.24
2023-02-24T01:07:04.403Z,33.06
2023-02-24T01:07:45.106Z,33.07
2023-02-24T01:08:24.410Z,33.20
2023-02-24T01:09:03.893Z,33.07
2023-02-24T01:09:42.932Z,33.11
2023-02-24T01:10:23.132Z,33.08
2023-02-24T01:11:03.682Z,33.07
2023-02-24T01:11:45.207Z,33.13
2023-02-24T01:12:26.606Z,33.02
2023-02-24T01:13:07.629Z,33.22
2023-02-24T01:13:47.452Z,33.14
2023-02-24T01:14:26.876Z,33.17
2023-02-24T01:15:07.532Z,33.05
2023-02-24T01:15:47.978Z,33.04
2023-02-24T01:16:28.385Z,33.09
2023-02-24T01:17:07.997Z,33.10
2023-02-24T01:17:47.964Z,33.10
2023-02-24T01:18:28.101Z,33.21
2023-02-24T01:19:09.215Z,33.04
2023-02-24T01:19:48.621Z,33.05
2023-02-24T01:20:28.403Z,33.00
2023-02-24T01:21:09.680Z,33.16
2023-02-24T01:21:49.937Z,33.05
2023-02-24T01:22:30.796Z,33.02
2023-02-24T01:23:11.264Z,33.07
2023-02-24T01:23:51.528Z,33.05
2023-02-24T01:24:32.334Z,33.02
2023-02-24T01:25:10.968Z,33.11
2023-02-24T01:25:50.447Z,33.01
2023-02-24T01:26:30.081Z,33.12
2023-02-24T01:27:11.641Z,33.16
2023-02-24T01:27:51.463Z,33.07
2023-02-24T01:28:31.391Z,33.04
2023-02-24T01:29:10.621Z,33.19
2023-02-24T01:29:51.971Z,33.01
2023-02-24T01:30:32.308Z,33.10
2023-02-24T01:31:11.664Z,33.11
2023-02-24T01:31:52.009Z,32.98
2023-02-24T01:32:32.434Z,33.23
2023-02-24T01:33:13.590Z,33.03
2023-02-24T01:33:53.503Z,33.04
2023-02-24T01:34:34.673Z,33.15
2023-02-24T01:35:14.725Z,32.99
2023-02-24T01:35:54.373Z,33.19
2023-02-24T01:36:34.088Z,33.02
2023-02-24T01:37:14.019Z,33.17
2023-02-24T01:37:53.556Z,33.06
2023-02-24T01:38:32.931Z,33.19
2023-02-24T01:39:12.531Z,33.00
2023-02-24T01:39:51.604Z,33.07
2023-02-24T01:40:31.660Z,33.18
2023-02-24T01:41:10.619Z,32.94
2023-02-24T01:41:49.465Z,33.12
2023-02-24T01:42:29.319Z,33.14
2023-02-24T01:43:09.019Z,33.15
2023-02-24T01:43:48.956Z,33.05
2023-02-24T01:44:30.161Z,33.06
2023-02-24T01:45:09.990Z,32.92
2023-02-24T01:45:49.689Z,32.93
2023-02-24T01:46:28.254Z,32.98
2023-02-24T01:47:07.452Z,32.98
2023-02-24T01:47:46.760Z,33.07
2023-02-24T01:48:27.391Z,32.98
2023-02-24T01:49:07.430Z,33.13
2023-02-24T01:49:48.442Z,33.07
2023-02-24T01:50:27.506Z,32.97
2023-02-24T01:51:07.854Z,32.85
2023-02-24T01:51:46.937Z,32.94
2023-02-24T01:52:26.626Z,32.92
2023-02-24T01:53:07.560Z,32.90
2023-02-24T01:53:50.057Z,32.91
2023-02-24T01:54:30.008Z,32.89
2023-02-24T01:55:10.051Z,33.09
2023-02-24T01:55:48.518Z,32.96
2023-02-24T01:56:28.606Z,33.13
2023-02-24T01:57:07.687Z,32.96
2023-02-24T01:57:47.436Z,33.01
2023-02-24T01:58:27.288Z,32.93
2023-02-24T01:59:07.326Z,33.03
2023-02-24T01:59:46.706Z,32.93
2023-02-24T02:00:26.450Z,33.06
2023-02-24T02:01:06.845Z,32.98
2023-02-24T02:01:48.304Z,33.02
2023-02-24T02:02:26.729Z,33.17
2023-02-24T02:03:05.827Z,33.03
2023-02-24T02:03:46.057Z,33.17
2023-02-24T02:04:26.460Z,32.88
2023-02-24T02:05:05.832Z,32.99
2023-02-24T02:05:45.656Z,32.82
2023-02-24T02:06:24.952Z,32.90
2023-02-24T02:07:04.125Z,32.89
2023-02-24T02:07:42.719Z,33.06
2023-02-24T02:08:22.191Z,33.11
2023-02-24T02:09:02.303Z,32.86
2023-02-24T02:09:41.611Z,32.84
2023-02-24T02:10:20.740Z,33.01
2023-02-24T02:11:00.292Z,33.01
2023-02-24T02:11:40.041Z,32.86
2023-02-24T02:12:19.333Z,32.83
2023-02-24T02:12:57.756Z,32.96
2023-02-24T02:13:35.956Z,33.00
2023-02-24T02:14:15.324Z,32.92
2023-02-24T02:14:55.269Z,32.98
2023-02-24T02:15:35.119Z,32.81
2023-02-24T02:16:14.912Z,32.79
2023-02-24T02:16:55.911Z,32.88
2023-02-24T02:17:35.130Z,32.84
2023-02-24T02:18:15.426Z,32.92
2023-02-24T02:18:53.944Z,32.75
2023-02-24T02:19:37.409Z,32.93
2023-02-24T02:20:16.652Z,32.88
2023-02-24T02:20:56.131Z,32.77
2023-02-24T02:21:36.358Z,32.84
2023-02-24T02:22:16.519Z,32.88
2023-02-24T02:22:57.009Z,32.80
2023-02-24T02:23:37.923Z,32.82
2023-02-24T02:24:18.081Z,32.74
2023-02-24T02:24:57.427Z,32.86
2023-02-24T02:25:37.148Z,32.78
2023-02-24T02:26:17.329Z,32.93
2023-02-24T02:26:57.164Z,32.84
2023-02-24T02:27:36.792Z,32.78
2023-02-24T02:28:16.246Z,32.87
2023-02-24T02:28:55.102Z,32.84
2023-02-24T02:29:34.477Z,32.78
2023-02-24T02:30:14.035Z,32.86
2023-02-24T02:30:53.909Z,33.00
2023-02-24T02:31:33.218Z,32.80
2023-02-24T02:32:14.006Z,32.81
2023-02-24T02:32:52.884Z,32.83
2023-02-24T02:33:33.497Z,33.00
2023-02-24T02:34:12.556Z,32.78
2023-02-24T02:34:52.020Z,32.79
2023-02-24T02:35:32.143Z,32.83
2023-02-24T02:36:13.717Z,32.86
2023-02-24T02:36:53.708Z,32.86
2023-02-24T02:37:33.297Z,32.72
2023-02-24T02:38:11.976Z,32.92
2023-02-24T02:38:51.154Z,32.84
2023-02-24T02:39:29.783Z,32.93
2023-02-24T02:40:08.788Z,32.79
2023-02-24T02:40:48.929Z,32.77
2023-02-24T02:41:27.918Z,32.79
2023-02-24T02:42:07.771Z,32.92
2023-02-24T02:42:46.832Z,32.91
2023-02-24T02:43:27.087Z,32.77
2023-02-24T02:44:06.655Z,33.00
2023-02-24T02:44:45.823Z,32.85
2023-02-24T02:45:24.927Z,33.01
2023-02-24T02:46:05.591Z,32.84
2023-02-24T02:46:44.856Z,32.81
2023-02-24T02:47:24.735Z,32.76
2023-02-24T02:48:06.119Z,32.79
2023-02-24T02:48:45.436Z,32.98
2023-02-24T02:49:25.146Z,32.94
2023-02-24T02:50:03.227Z,32.78
2023-02-24T02:50:42.706Z,32.87
2023-02-24T02:51:23.655Z,32.84
2023-02-24T02:52:03.763Z,32.72
2023-02-24T02:52:44.128Z,32.78
2023-02-24T02:53:23.879Z,32.80
2023-02-24T02:54:03.794Z,32.72
2023-02-24T02:54:43.772Z,32.72
2023-02-24T02:55:22.180Z,32.95
2023-02-24T02:56:01.773Z,32.49
2023-02-24T02:56:42.289Z,32.83
2023-02-24T02:57:21.435Z,32.64
2023-02-24T02:58:00.685Z,32.84
2023-02-24T02:58:41.642Z,32.71
2023-02-24T02:59:21.646Z,32.67
2023-02-24T03:00:01.325Z,32.72
2023-02-24T03:00:40.006Z,32.82
2023-02-24T03:01:19.382Z,32.72
2023-02-24T03:01:58.794Z,32.87
2023-02-24T03:02:38.771Z,32.84
2023-02-24T03:03:18.672Z,32.96
2023-02-24T03:03:58.845Z,32.80
2023-02-24T03:04:37.668Z,32.88
2023-02-24T03:05:17.846Z,32.74
2023-02-24T03:05:58.156Z,32.71
2023-02-24T03:06:38.008Z,32.83
2023-02-24T03:07:18.239Z,32.83
2023-02-24T03:07:57.985Z,32.87
2023-02-24T03:08:37.854Z,32.76
2023-02-24T03:09:18.524Z,32.72
2023-02-24T03:09:59.457Z,32.89
2023-02-24T03:10:38.312Z,32.71
2023-02-24T03:11:16.959Z,32.57
2023-02-24T03:11:56.539Z,32.94
2023-02-24T03:12:36.147Z,32.91
2023-02-24T03:13:15.943Z,32.91
2023-02-24T03:13:54.876Z,32.72
2023-02-24T03:14:34.070Z,32.72
2023-02-24T03:15:14.089Z,32.84
2023-02-24T03:15:54.399Z,32.84
2023-02-24T03:16:34.762Z,32.66
2023-02-24T03:17:13.708Z,32.63
2023-02-24T03:17:53.507Z,32.71
2023-02-24T03:18:33.643Z,32.78
2023-02-24T03:19:13.876Z,32.72
2023-02-24T03:19:54.717Z,32.89
2023-02-24T03:20:34.065Z,32.70
2023-02-24T03:21:14.295Z,32.89
2023-02-24T03:21:53.400Z,32.86
2023-02-24T03:22:32.651Z,32.76
2023-02-24T03:23:11.975Z,32.75
2023-02-24T03:23:52.823Z,32.72
2023-02-24T03:24:32.414Z,32.66
2023-02-24T03:25:13.316Z,32.67
2023-02-24T03:25:52.529Z,32.68
2023-02-24T03:26:32.090Z,32.72
2023-02-24T03:27:10.959Z,32.78
2023-02-24T03:27:50.335Z,32.64
2023-02-24T03:28:30.345Z,32.77
2023-02-24T03:29:09.855Z,32.67
2023-02-24T03:29:49.607Z,32.72
2023-02-24T03:30:29.474Z,32.52
2023-02-24T03:31:09.621Z,32.70
2023-02-24T03:31:50.750Z,32.60
2023-02-24T03:32:30.337Z,32.52
2023-02-24T03:33:09.914Z,32.69
2023-02-24T03:33:50.375Z,32.69
2023-02-24T03:34:30.903Z,32.58
2023-02-24T03:35:11.364Z,32.76
2023-02-24T03:35:52.620Z,32.64
2023-02-24T03:36:33.720Z,32.61
2023-02-24T03:37:13.763Z,32.81
2023-02-24T03:37:52.963Z,32.60
2023-02-24T03:38:32.284Z,32.63
2023-02-24T03:39:13.233Z,32.88
2023-02-24T03:39:53.023Z,32.92
2023-02-24T03:40:33.033Z,32.81
2023-02-24T03:41:12.984Z,32.70
2023-02-24T03:41:53.244Z,32.78
2023-02-24T03:42:34.224Z,32.79
2023-02-24T03:43:16.319Z,32.66
2023-02-24T03:43:54.099Z,32.68
2023-02-24T03:44:34.499Z,32.70
2023-02-24T03:45:14.688Z,32.76
2023-02-24T03:45:56.161Z,32.77
2023-02-24T03:46:35.983Z,32.59
2023-02-24T03:47:15.708Z,32.54
2023-02-24T03:47:55.757Z,32.65
2023-02-24T03:48:37.011Z,32.54
2023-02-24T03:49:16.328Z,32.52
2023-02-24T03:49:57.395Z,32.69
2023-02-24T03:50:37.467Z,32.80
2023-02-24T03:51:18.465Z,32.66
2023-02-24T03:51:58.283Z,32.76
2023-02-24T03:52:39.018Z,32.74
2023-02-24T03:53:18.951Z,32.70
2023-02-24T03:53:57.918Z,32.62
2023-02-24T03:54:36.940Z,32.59
2023-02-24T03:55:16.043Z,32.54
2023-02-24T03:55:55.272Z,32.52
2023-02-24T03:56:35.365Z,32.44
2023-02-24T03:57:14.317Z,32.51
2023-02-24T03:57:53.884Z,32.63
2023-02-24T03:58:33.582Z,32.70
2023-02-24T03:59:12.066Z,32.50
2023-02-24T03:59:51.396Z,32.56
2023-02-24T04:00:31.580Z,32.60
2023-02-24T04:01:14.840Z,32.45
2023-02-24T04:01:54.633Z,32.53
2023-02-24T04:02:35.654Z,32.58
2023-02-24T04:03:15.391Z,32.44
2023-02-24T04:03:54.964Z,32.55
2023-02-24T04:04:34.352Z,32.48
2023-02-24T04:05:13.924Z,32.57
2023-02-24T04:05:54.823Z,32.48
2023-02-24T04:06:34.863Z,32.49
2023-02-24T04:07:15.942Z,32.73
2023-02-24T04:07:56.262Z,32.57
2023-02-24T04:08:37.509Z,32.63
2023-02-24T04:09:17.700Z,32.63
2023-02-24T04:09:57.005Z,32.76
2023-02-24T04:10:36.365Z,32.62
2023-02-24T04:11:17.413Z,32.67
2023-02-24T04:11:57.904Z,32.59
2023-02-24T04:12:38.855Z,32.66
2023-02-24T04:13:19.231Z,32.56
2023-02-24T04:14:00.222Z,32.48
2023-02-24T04:14:41.225Z,32.70
2023-02-24T04:15:20.874Z,32.52
2023-02-24T04:16:00.298Z,32.57
2023-02-24T04:16:41.431Z,32.66
2023-02-24T04:17:22.866Z,32.58
2023-02-24T04:18:03.982Z,32.45
2023-02-24T04:18:43.952Z,32.70
2023-02-24T04:19:24.145Z,32.43
2023-02-24T04:20:05.311Z,32.70
2023-02-24T04:20:46.005Z,32.71
2023-02-24T04:21:25.362Z,32.67
2023-02-24T04:22:06.626Z,32.50
2023-02-24T04:22:46.122Z,32.50
2023-02-24T04:23:27.440Z,32.53
2023-02-24T04:24:07.419Z,32.54
2023-02-24T04:24:48.644Z,32.54
2023-02-24T04:25:28.110Z,32.53
2023-02-24T04:26:08.696Z,32.53
2023-02-24T04:26:48.044Z,32.47
2023-02-24T04:27:28.868Z,32.42
2023-02-24T04:28:08.659Z,32.67
2023-02-24T04:28:48.621Z,32.41
2023-02-24T04:29:28.804Z,32.53
2023-02-24T04:30:09.151Z,32.51
2023-02-24T04:30:50.137Z,32.47
2023-02-24T04:31:28.994Z,32.66
2023-02-24T04:32:08.168Z,32.44
2023-02-24T04:32:47.403Z,32.57
2023-02-24T04:33:26.827Z,32.46
2023-02-24T04:34:06.273Z,32.49
2023-02-24T04:34:46.783Z,32.52
2023-02-24T04:35:26.221Z,32.46
2023-02-24T04:36:06.426Z,32.62
2023-02-24T04:36:44.990Z,32.36
2023-02-24T04:37:24.350Z,32.46
2023-02-24T04:38:05.494Z,32.41
2023-02-24T04:38:45.099Z,32.61
2023-02-24T04:39:24.831Z,32.65
2023-02-24T04:40:05.886Z,32.79
2023-02-24T04:40:45.162Z,32.43
2023-02-24T04:41:24.365Z,32.61
2023-02-24T04:42:04.821Z,32.43
2023-02-24T04:42:44.010Z,32.49
2023-02-24T04:43:24.859Z,32.46
2023-02-24T04:44:04.187Z,32.40
2023-02-24T04:44:43.415Z,32.29
2023-02-24T04:45:23.649Z,32.34
2023-02-24T04:46:03.748Z,32.41
2023-02-24T04:46:44.787Z,32.42
2023-02-24T04:47:24.614Z,32.45
2023-02-24T04:48:04.036Z,32.42
2023-02-24T04:48:47.029Z,32.40
2023-02-24T04:49:26.859Z,32.37
2023-02-24T04:50:06.888Z,32.61
2023-02-24T04:50:48.185Z,32.42
2023-02-24T04:51:29.535Z,32.29
2023-02-24T04:52:09.575Z,32.61
2023-02-24T04:52:48.873Z,32.55
2023-02-24T04:53:28.437Z,32.37
2023-02-24T04:54:08.976Z,32.32
2023-02-24T04:54:49.446Z,32.38
2023-02-24T04:55:30.027Z,32.42
2023-02-24T04:56:11.229Z,32.54
2023-02-24T04:56:51.238Z,32.37
2023-02-24T04:57:31.926Z,32.57
2023-02-24T04:58:11.223Z,32.43
2023-02-24T04:58:50.304Z,32.35
2023-02-24T04:59:30.599Z,32.43
2023-02-24T05:00:10.757Z,32.27
2023-02-24T05:00:50.658Z,32.47
2023-02-24T05:01:30.697Z,32.45
2023-02-24T05:02:10.584Z,32.39
2023-02-24T05:02:50.477Z,32.33
2023-02-24T05:03:29.720Z,32.45
2023-02-24T05:04:09.042Z,32.36
2023-02-24T05:04:48.716Z,32.36
2023-02-24T05:05:28.759Z,32.39
2023-02-24T05:06:08.857Z,32.39
2023-02-24T05:06:49.857Z,32.30
2023-02-24T05:07:29.836Z,32.44
2023-02-24T05:08:09.756Z,32.29
2023-02-24T05:08:49.225Z,32.39
2023-02-24T05:09:28.337Z,32.24
2023-02-24T05:10:08.320Z,32.41
2023-02-24T05:10:48.610Z,32.33
2023-02-24T05:11:27.840Z,32.22
2023-02-24T05:12:09.067Z,32.31
2023-02-24T05:12:48.949Z,32.28
2023-02-24T05:13:28.911Z,32.48
2023-02-24T05:14:07.866Z,32.37
2023-02-24T05:14:46.897Z,32.37
2023-02-24T05:15:26.788Z,32.43
2023-02-24T05:16:06.858Z,32.27
2023-02-24T05:16:47.233Z,32.28
2023-02-24T05:17:27.222Z,32.46
2023-02-24T05:18:08.622Z,32.48
2023-02-24T05:18:48.237Z,32.44
2023-02-24T05:19:26.806Z,32.45
2023-02-24T05:20:06.145Z,32.30
2023-02-24T05:20:45.167Z,32.42
2023-02-24T05:21:25.330Z,32.41
2023-02-24T05:22:05.662Z,32.31
2023-02-24T05:22:47.101Z,32.45
2023-02-24T05:23:27.851Z,32.21
2023-02-24T05:24:07.606Z,32.28
2023-02-24T05:24:47.133Z,32.38
2023-02-24T05:25:26.357Z,32.39
2023-02-24T05:26:05.050Z,32.37
2023-02-24T05:26:44.147Z,32.39
2023-02-24T05:27:23.268Z,32.28
2023-02-24T05:28:02.530Z,32.39
2023-02-24T05:28:40.956Z,32.10
2023-02-24T05:29:21.168Z,32.46
2023-02-24T05:30:00.375Z,32.42
2023-02-24T05:30:40.728Z,32.25
2023-02-24T05:31:19.139Z,32.20
2023-02-24T05:31:58.820Z,32.18
2023-02-24T05:32:38.869Z,32.12
2023-02-24T05:33:19.892Z,32.35
2023-02-24T05:33:59.995Z,32.24
2023-02-24T05:34:40.888Z,32.38
2023-02-24T05:35:22.092Z,32.21
2023-02-24T05:36:02.130Z,32.21
2023-02-24T05:36:41.276Z,32.18
2023-02-24T05:37:21.452Z,32.37
2023-02-24T05:38:01.462Z,32.21
2023-02-24T05:38:42.418Z,32.20
2023-02-24T05:39:22.382Z,32.34
2023-02-24T05:40:02.027Z,32.18
2023-02-24T05:40:42.210Z,32.19
2023-02-24T05:41:21.356Z,32.17
2023-02-24T05:41:59.545Z,32.20
2023-02-24T05:42:39.249Z,32.17
2023-02-24T05:43:18.102Z,32.23
2023-02-24T05:43:57.330Z,32.19
2023-02-24T05:44:36.843Z,32.22
2023-02-24T05:45:16.062Z,32.34
2023-02-24T05:45:55.515Z,32.12
2023-02-24T05:46:34.699Z,32.19
2023-02-24T05:47:13.711Z,32.20
2023-02-24T05:47:52.985Z,32.14
2023-02-24T05:48:32.944Z,32.10
2023-02-24T05:49:12.845Z,32.13
2023-02-24T05:49:53.760Z,32.10
2023-02-24T05:50:33.509Z,32.12
2023-02-24T05:51:13.945Z,32.33
2023-02-24T05:51:51.978Z,32.10
2023-02-24T05:52:31.428Z,32.14
2023-02-24T05:53:11.350Z,32.08
2023-02-24T05:53:51.402Z,32.26
2023-02-24T05:54:31.170Z,32.13
2023-02-24T05:55:11.079Z,32.13
2023-02-24T05:55:53.592Z,32.14
2023-02-24T05:56:33.961Z,32.05
2023-02-24T05:57:12.876Z,32.35
2023-02-24T05:57:52.387Z,32.08
2023-02-24T05:58:31.872Z,31.93
2023-02-24T05:59:11.629Z,32.23
2023-02-24T05:59:50.259Z,32.17
2023-02-24T06:00:31.501Z,32.09
2023-02-24T06:01:11.395Z,32.18
2023-02-24T06:01:51.851Z,31.97
2023-02-24T06:02:30.641Z,32.12
2023-02-24T06:03:10.116Z,32.25
2023-02-24T06:03:50.648Z,32.03
2023-02-24T06:04:30.439Z,32.13
2023-02-24T06:05:11.484Z,31.85
2023-02-24T06:05:52.604Z,32.19
2023-02-24T06:06:32.432Z,32.28
2023-02-24T06:07:12.263Z,32.18
2023-02-24T06:07:51.514Z,32.05
2023-02-24T06:08:31.445Z,32.09
2023-02-24T06:09:11.805Z,32.10
2023-02-24T06:09:52.225Z,32.10
2023-02-24T06:10:32.594Z,32.05
2023-02-24T06:11:13.629Z,32.19
2023-02-24T06:11:53.938Z,32.23
2023-02-24T06:12:34.580Z,32.04
2023-02-24T06:13:13.917Z,32.18
2023-02-24T06:13:53.298Z,32.28
2023-02-24T06:14:33.555Z,32.03
2023-02-24T06:15:14.133Z,32.13
2023-02-24T06:15:55.435Z,32.12
2023-02-24T06:16:36.767Z,32.03
2023-02-24T06:17:16.215Z,32.11
2023-02-24T06:17:56.117Z,32.06
2023-02-24T06:18:34.731Z,32.05
2023-02-24T06:19:14.985Z,32.09
2023-02-24T06:19:54.433Z,32.05
2023-02-24T06:20:33.989Z,31.99
2023-02-24T06:21:13.466Z,32.14
2023-02-24T06:21:53.628Z,32.05
2023-02-24T06:22:33.525Z,32.03
2023-02-24T06:23:13.336Z,31.96
2023-02-24T06:23:53.619Z,32.06
2023-02-24T06:24:33.434Z,32.08
2023-02-24T06:25:13.074Z,32.14
2023-02-24T06:25:53.465Z,32.14
2023-02-24T06:26:34.494Z,32.37
2023-02-24T06:27:14.627Z,32.13
2023-02-24T06:27:56.330Z,32.30
2023-02-24T06:28:36.223Z,32.05
2023-02-24T06:29:16.592Z,32.03
2023-02-24T06:29:55.587Z,32.01
2023-02-24T06:30:35.870Z,31.97
2023-02-24T06:31:15.442Z,32.15
2023-02-24T06:31:56.771Z,32.13
2023-02-24T06:32:37.172Z,32.01
2023-02-24T06:33:16.510Z,32.10
2023-02-24T06:33:56.433Z,32.06
2023-02-24T06:34:36.944Z,32.01
2023-02-24T06:35:15.785Z,32.05
2023-02-24T06:35:55.579Z,31.95
2023-02-24T06:36:35.469Z,32.25
2023-02-24T06:37:14.608Z,32.02
2023-02-24T06:37:54.982Z,31.97
2023-02-24T06:38:35.176Z,32.12
2023-02-24T06:39:15.471Z,32.03
2023-02-24T06:39:53.189Z,32.04
2023-02-24T06:40:32.825Z,31.85
2023-02-24T06:41:12.481Z,32.00
2023-02-24T06:41:52.392Z,31.94
2023-02-24T06:42:31.593Z,31.92
2023-02-24T06:43:11.721Z,32.08
2023-02-24T06:43:51.946Z,31.99
2023-02-24T06:44:31.876Z,32.05
2023-02-24T06:45:10.920Z,32.13
2023-02-24T06:45:50.761Z,32.06
2023-02-24T06:46:29.631Z,32.21
2023-02-24T06:47:09.948Z,32.14
2023-02-24T06:47:49.792Z,31.95
2023-02-24T06:48:30.256Z,32.03
2023-02-24T06:49:10.085Z,32.09
2023-02-24T06:49:49.732Z,31.91
2023-02-24T06:50:28.615Z,31.95
2023-02-24T06:51:07.750Z,32.14
2023-02-24T06:51:48.720Z,31.92
2023-02-24T06:52:29.041Z,31.93
2023-02-24T06:53:07.204Z,31.95
2023-02-24T06:53:44.961Z,31.95
2023-02-24T06:54:24.817Z,31.96
2023-02-24T06:55:04.852Z,31.92
2023-02-24T06:55:43.911Z,31.88
2023-02-24T06:56:23.078Z,31.93
2023-02-24T06:57:02.876Z,31.94
2023-02-24T06:57:42.795Z,31.85
2023-02-24T06:58:22.635Z,31.75
2023-02-24T06:59:02.292Z,31.89
2023-02-24T06:59:41.982Z,32.05
2023-02-24T07:00:20.994Z,31.87
2023-02-24T07:00:59.449Z,31.87
2023-02-24T07:01:38.838Z,31.85
2023-02-24T07:02:17.850Z,32.01
2023-02-24T07:02:56.671Z,32.08
2023-02-24T07:03:36.708Z,31.92
2023-02-24T07:04:15.992Z,31.86
2023-02-24T07:04:55.295Z,31.90
2023-02-24T07:05:36.150Z,32.05
2023-02-24T07:06:14.845Z,32.00
2023-02-24T07:06:53.402Z,31.92
2023-02-24T07:07:33.141Z,32.01
2023-02-24T07:08:12.151Z,31.87
2023-02-24T07:08:52.092Z,31.91
2023-02-24T07:09:32.253Z,31.89
2023-02-24T07:10:11.712Z,31.70
2023-02-24T07:10:50.863Z,31.77
2023-02-24T07:11:31.487Z,31.89
2023-02-24T07:12:10.293Z,31.76
2023-02-24T07:12:50.152Z,31.81
2023-02-24T07:13:30.031Z,31.80
2023-02-24T07:14:10.025Z,31.76
2023-02-24T07:14:51.019Z,31.89
2023-02-24T07:15:31.460Z,31.89
2023-02-24T07:16:11.248Z,31.83
2023-02-24T07:16:50.732Z,31.85
2023-02-24T07:17:29.575Z,31.77
2023-02-24T07:18:08.720Z,31.82
2023-02-24T07:18:48.493Z,31.97
2023-02-24T07:19:28.620Z,32.05
2023-02-24T07:20:09.454Z,31.85
2023-02-24T07:20:49.545Z,31.87
2023-02-24T07:21:29.875Z,31.78
2023-02-24T07:22:10.222Z,31.76
2023-02-24T07:22:49.222Z,31.76
2023-02-24T07:23:28.589Z,31.94
2023-02-24T07:24:08.439Z,31.89
2023-02-24T07:24:48.031Z,31.90
2023-02-24T07:25:27.890Z,31.76
2023-02-24T07:26:08.331Z,31.83
2023-02-24T07:26:48.252Z,31.95
2023-02-24T07:27:27.792Z,31.82
2023-02-24T07:28:06.666Z,31.70
2023-02-24T07:28:45.970Z,31.75
2023-02-24T07:29:25.427Z,31.89
2023-02-24T07:30:05.876Z,31.85
2023-02-24T07:30:45.857Z,31.87
2023-02-24T07:31:25.978Z,31.90
2023-02-24T07:32:05.961Z,31.77
2023-02-24T07:32:46.160Z,31.74
2023-02-24T07:33:25.429Z,31.87
2023-02-24T07:34:04.530Z,31.97
2023-02-24T07:34:44.385Z,31.85
2023-02-24T07:35:24.587Z,31.59
2023-02-24T07:36:06.036Z,31.58
2023-02-24T07:36:48.778Z,31.76
2023-02-24T07:37:27.067Z,31.67
2023-02-24T07:38:06.378Z,31.66
2023-02-24T07:38:46.595Z,31.77
2023-02-24T07:39:27.674Z,31.83
2023-02-24T07:40:08.739Z,31.75
2023-02-24T07:40:48.577Z,31.69
2023-02-24T07:41:31.001Z,31.77
2023-02-24T07:42:08.992Z,31.56
2023-02-24T07:42:48.149Z,31.93
2023-02-24T07:43:27.087Z,31.59
2023-02-24T07:44:06.161Z,31.80
2023-02-24T07:44:45.448Z,31.55
2023-02-24T07:45:26.440Z,31.87
2023-02-24T07:46:06.460Z,31.77
2023-02-24T07:46:45.744Z,31.79
2023-02-24T07:47:25.773Z,31.72
2023-02-24T07:48:05.810Z,31.71
2023-02-24T07:48:45.467Z,31.88
2023-02-24T07:49:25.127Z,31.79
2023-02-24T07:50:05.236Z,31.62
2023-02-24T07:50:44.792Z,32.00
2023-02-24T07:51:24.595Z,31.76
2023-02-24T07:52:04.308Z,31.60
2023-02-24T07:52:44.205Z,31.71
2023-02-24T07:53:23.120Z,31.60
2023-02-24T07:54:02.617Z,31.66
2023-02-24T07:54:42.640Z,31.80
2023-02-24T07:55:21.992Z,31.65
2023-02-24T07:56:01.753Z,31.65
2023-02-24T07:56:40.937Z,31.60
2023-02-24T07:57:20.130Z,31.54
2023-02-24T07:58:00.502Z,31.54
2023-02-24T07:58:38.975Z,31.66
2023-02-24T07:59:18.172Z,31.64
2023-02-24T07:59:59.077Z,31.53
2023-02-24T08:00:38.374Z,31.70
2023-02-24T08:01:18.421Z,31.57
2023-02-24T08:01:57.998Z,31.56
2023-02-24T08:02:37.627Z,31.66
2023-02-24T08:03:18.574Z,31.62
2023-02-24T08:03:57.704Z,31.69
2023-02-24T08:04:36.741Z,31.60
2023-02-24T08:05:16.732Z,31.57
2023-02-24T08:05:57.159Z,31.63
2023-02-24T08:06:38.672Z,31.67
2023-02-24T08:07:19.583Z,31.61
2023-02-24T08:07:59.703Z,31.55
2023-02-24T08:08:40.858Z,31.67
2023-02-24T08:09:21.049Z,31.69
2023-02-24T08:09:59.996Z,31.51
2023-02-24T08:10:39.621Z,31.66
2023-02-24T08:11:19.600Z,31.62
2023-02-24T08:11:59.253Z,31.55
2023-02-24T08:12:38.798Z,31.50
2023-02-24T08:13:18.232Z,31.63
2023-02-24T08:13:57.241Z,31.60
2023-02-24T08:14:36.344Z,31.67
2023-02-24T08:15:14.980Z,31.66
2023-02-24T08:15:54.248Z,31.71
2023-02-24T08:16:33.797Z,31.75
2023-02-24T08:17:12.402Z,31.57
2023-02-24T08:17:52.255Z,31.43
2023-02-24T08:18:31.233Z,31.46
2023-02-24T08:19:10.439Z,31.47
2023-02-24T08:19:49.015Z,31.61
2023-02-24T08:20:27.622Z,31.61
2023-02-24T08:21:06.786Z,31.54
2023-02-24T08:21:45.625Z,31.56
2023-02-24T08:22:24.840Z,31.62
2023-02-24T08:23:04.584Z,31.54
2023-02-24T08:23:43.628Z,31.68
2023-02-24T08:24:25.127Z,31.62
2023-02-24T08:25:02.282Z,31.70
2023-02-24T08:25:41.865Z,31.59
2023-02-24T08:26:21.805Z,31.55
2023-02-24T08:27:01.791Z,31.53
2023-02-24T08:27:41.290Z,31.60
2023-02-24T08:28:21.172Z,31.60
2023-02-24T08:29:00.143Z,31.77
2023-02-24T08:29:39.788Z,31.62
2023-02-24T08:30:18.143Z,31.57
2023-02-24T08:30:57.570Z,31.71
2023-02-24T08:31:36.068Z,31.63
2023-02-24T08:32:17.461Z,31.56
2023-02-24T08:32:56.081Z,31.63
2023-02-24T08:33:36.412Z,31.53